ORER/EBL METAR and TAF weather

Enter ICAO airport designator
Station Type Date Time Source
ORER METAR 2019/10/21 03:00 UTC NOAA

ORER 210300Z 16007KT 8000 NSC 19/08 Q1017 NOSIG


Station Type Date Time Source
ORER Decoded METAR 2019/10/21 03:00 UTC NOAA

Station name not available
Oct 20, 2019 - 11:00 PM EDT / 2019.10.21 0300 UTC
Wind: from the SSE (160 degrees) at 8 MPH (7 KT):0
Visibility: 4 mile(s):0
Temperature: 66 F (19 C)
Dew Point: 46 F (8 C)
Relative Humidity: 48%
Pressure (altimeter): 30.03 in. Hg (1017 hPa)
ob: ORER 210300Z 16007KT 8000 NSC 19/08 Q1017 NOSIG
cycle: 3

Station Type Date Time Source
ORER TAF 2019/10/21 06:20 UTC NOAA

TAF ORER 210300Z 2106/2206 16008KT 8000 SCT080
TEMPO 2110/2115 TS - SHRA SCT025CB BKN040

Example: see airport list